createdAt,value
2017-07-06T00:01:25.936Z,73.90
2017-07-06T00:03:53.495Z,74.10
2017-07-06T00:06:21.825Z,73.30
2017-07-06T00:08:49.416Z,73.30
2017-07-06T00:11:16.980Z,73.80
2017-07-06T00:13:44.572Z,74.70
2017-07-06T00:16:12.138Z,75.90
2017-07-06T00:18:39.743Z,77.10
2017-07-06T00:21:07.309Z,77.90
2017-07-06T00:23:34.868Z,77.50
2017-07-06T00:26:02.475Z,76.80
2017-07-06T00:28:30.040Z,76.40
2017-07-06T00:30:57.616Z,76.30
2017-07-06T00:33:25.209Z,76.50
2017-07-06T00:35:52.773Z,76.10
2017-07-06T00:38:20.411Z,76.00
2017-07-06T00:40:47.973Z,76.20
2017-07-06T00:43:15.536Z,76.00
2017-07-06T00:45:43.133Z,76.00
2017-07-06T00:48:10.691Z,76.10
2017-07-06T00:50:38.291Z,75.90
2017-07-06T00:53:05.846Z,75.90
2017-07-06T00:55:33.439Z,75.80
2017-07-06T00:58:01.005Z,76.00
2017-07-06T01:00:28.595Z,76.40
2017-07-06T01:02:56.982Z,77.30
2017-07-06T01:05:24.530Z,76.60
2017-07-06T01:07:52.125Z,76.90
2017-07-06T01:10:19.685Z,77.60
2017-07-06T01:12:47.279Z,77.90
2017-07-06T01:15:14.849Z,77.80
2017-07-06T01:17:42.450Z,77.90
2017-07-06T01:20:10.778Z,77.60
2017-07-06T01:22:38.339Z,77.60
2017-07-06T01:25:05.945Z,77.50
2017-07-06T01:27:34.261Z,77.10
2017-07-06T01:30:01.868Z,77.00
2017-07-06T01:32:29.429Z,76.70
2017-07-06T01:34:57.281Z,76.60
2017-07-06T01:37:24.843Z,77.50
2017-07-06T01:39:52.438Z,78.10
2017-07-06T01:42:19.996Z,79.00
2017-07-06T01:44:47.604Z,80.00
2017-07-06T01:47:15.182Z,80.20
2017-07-06T01:49:42.776Z,80.20
2017-07-06T01:52:10.339Z,80.10
2017-07-06T01:54:37.945Z,80.30
2017-07-06T01:57:05.523Z,80.40
2017-07-06T01:59:33.084Z,80.20
2017-07-06T02:02:00.680Z,79.80
2017-07-06T02:04:28.241Z,79.60
2017-07-06T02:06:55.848Z,79.60
2017-07-06T02:09:23.416Z,79.80
2017-07-06T02:11:50.975Z,79.90
2017-07-06T02:14:18.567Z,79.80
2017-07-06T02:16:46.895Z,79.90
2017-07-06T02:19:14.489Z,79.80
2017-07-06T02:21:42.081Z,79.60
2017-07-06T02:24:09.644Z,79.40
2017-07-06T02:26:37.242Z,79.50
2017-07-06T02:29:04.830Z,79.30
2017-07-06T02:31:32.441Z,79.50
2017-07-06T02:34:00.074Z,79.90
2017-07-06T02:36:28.409Z,80.00
2017-07-06T02:38:55.966Z,79.90
2017-07-06T02:41:23.562Z,79.80
2017-07-06T02:43:51.121Z,79.60
2017-07-06T02:46:19.494Z,79.90
2017-07-06T02:48:47.066Z,79.50
2017-07-06T02:51:15.393Z,79.20
2017-07-06T02:53:42.977Z,79.10
2017-07-06T02:56:10.535Z,78.90
2017-07-06T02:58:38.118Z,79.40
2017-07-06T03:01:06.478Z,80.70
2017-07-06T03:03:34.038Z,80.00
2017-07-06T03:06:01.630Z,80.10
2017-07-06T03:08:29.962Z,81.30
2017-07-06T03:10:57.766Z,80.50
2017-07-06T03:13:26.122Z,80.30
2017-07-06T03:15:53.683Z,80.20
2017-07-06T03:18:21.275Z,79.90
2017-07-06T03:20:48.869Z,80.50
2017-07-06T03:23:16.432Z,80.90
2017-07-06T03:25:44.038Z,80.90
2017-07-06T03:28:12.367Z,80.00
2017-07-06T03:30:39.929Z,80.30
2017-07-06T03:33:07.520Z,79.90
2017-07-06T03:35:35.084Z,79.50
2017-07-06T03:38:02.692Z,79.20
2017-07-06T03:40:30.254Z,79.50
2017-07-06T03:42:57.821Z,79.90
2017-07-06T03:45:25.416Z,79.70
2017-07-06T03:47:52.974Z,79.80
2017-07-06T03:50:20.565Z,79.70
2017-07-06T03:52:48.886Z,79.50
2017-07-06T03:55:17.237Z,79.40
2017-07-06T03:57:44.859Z,80.00
2017-07-06T04:00:12.452Z,80.20
2017-07-06T04:02:40.014Z,80.50
2017-07-06T04:05:07.628Z,80.30
2017-07-06T04:07:35.186Z,79.90
2017-07-06T04:10:02.747Z,80.30
2017-07-06T04:12:30.325Z,80.80
2017-07-06T04:14:57.897Z,81.30
2017-07-06T04:17:26.248Z,81.60
2017-07-06T04:19:53.853Z,81.70
2017-07-06T04:22:21.461Z,81.50
2017-07-06T04:24:49.009Z,81.30
2017-07-06T04:27:16.571Z,81.70
2017-07-06T04:29:44.179Z,81.90
2017-07-06T04:32:12.507Z,81.70
2017-07-06T04:34:40.073Z,81.60
2017-07-06T04:37:07.664Z,81.80
2017-07-06T04:39:35.226Z,81.80
2017-07-06T04:42:02.834Z,81.50
2017-07-06T04:44:30.397Z,81.20
2017-07-06T04:46:57.989Z,80.70
2017-07-06T04:49:25.596Z,80.40
2017-07-06T04:51:53.163Z,80.40
2017-07-06T04:54:21.457Z,80.30
2017-07-06T04:56:49.064Z,79.20
2017-07-06T04:59:16.630Z,78.50
2017-07-06T05:01:44.193Z,78.70
2017-07-06T05:04:12.549Z,79.40
2017-07-06T05:06:40.114Z,78.70
2017-07-06T05:09:07.719Z,78.40
2017-07-06T05:11:35.283Z,78.50
2017-07-06T05:14:02.845Z,78.10
2017-07-06T05:16:30.439Z,78.50
2017-07-06T05:18:58.007Z,78.10
2017-07-06T05:21:25.609Z,78.00
2017-07-06T05:23:53.172Z,78.20
2017-07-06T05:26:20.734Z,77.80
2017-07-06T05:28:48.342Z,77.70
2017-07-06T05:31:15.920Z,77.60
2017-07-06T05:33:43.483Z,78.10
2017-07-06T05:36:11.091Z,78.20
2017-07-06T05:38:38.653Z,78.40
2017-07-06T05:41:06.230Z,78.10
2017-07-06T05:43:33.817Z,77.70
2017-07-06T05:46:01.403Z,77.20
2017-07-06T05:48:28.965Z,76.70
2017-07-06T05:50:56.558Z,75.60
2017-07-06T05:53:24.150Z,76.20
2017-07-06T05:55:51.698Z,76.60
2017-07-06T05:58:19.293Z,76.30
2017-07-06T06:00:46.870Z,74.60
2017-07-06T06:03:14.470Z,75.70
2017-07-06T06:05:42.014Z,75.30
2017-07-06T06:08:09.618Z,74.40
2017-07-06T06:10:37.165Z,74.10
2017-07-06T06:13:04.733Z,73.90
2017-07-06T06:15:32.335Z,72.50
2017-07-06T06:18:01.067Z,70.30
2017-07-06T06:20:29.503Z,68.90
2017-07-06T06:22:57.093Z,66.10
2017-07-06T06:25:24.688Z,63.50
2017-07-06T06:27:52.256Z,61.30
2017-07-06T06:30:19.874Z,59.50
2017-07-06T06:32:47.436Z,58.30
2017-07-06T06:35:15.002Z,57.40
2017-07-06T06:37:42.590Z,56.00
2017-07-06T06:40:10.828Z,56.60
2017-07-06T06:42:38.376Z,56.20
2017-07-06T06:45:05.985Z,54.70
2017-07-06T06:47:33.550Z,53.10
2017-07-06T06:50:01.111Z,53.60
2017-07-06T06:52:28.703Z,52.60
2017-07-06T06:54:56.266Z,53.40
2017-07-06T06:57:23.891Z,52.40
2017-07-06T06:59:51.451Z,52.20
2017-07-06T07:02:19.019Z,50.80
2017-07-06T07:04:46.606Z,50.40
2017-07-06T07:07:14.177Z,52.10
2017-07-06T07:09:41.777Z,52.40
2017-07-06T07:12:09.337Z,54.00
2017-07-06T07:14:36.887Z,54.90
2017-07-06T07:17:04.510Z,56.50
2017-07-06T07:19:32.072Z,56.00
2017-07-06T07:21:59.635Z,56.00
2017-07-06T07:24:27.258Z,56.00
2017-07-06T07:26:54.841Z,54.80
2017-07-06T07:29:23.190Z,54.40
2017-07-06T07:31:50.787Z,54.50
2017-07-06T07:34:18.350Z,53.30
2017-07-06T07:36:45.911Z,54.40
2017-07-06T07:39:13.519Z,55.10
2017-07-06T07:41:41.089Z,56.10
2017-07-06T07:44:08.645Z,56.10
2017-07-06T07:46:36.254Z,54.70
2017-07-06T07:49:03.831Z,55.10
2017-07-06T07:51:31.399Z,57.30
2017-07-06T07:53:58.990Z,56.70
2017-07-06T07:56:26.548Z,57.40
2017-07-06T07:58:54.142Z,58.20
2017-07-06T08:01:22.468Z,58.40
2017-07-06T08:03:50.047Z,58.30
2017-07-06T08:06:17.671Z,59.30
2017-07-06T08:08:45.232Z,59.50
2017-07-06T08:11:12.796Z,59.10
2017-07-06T08:13:40.387Z,58.90
2017-07-06T08:16:07.980Z,57.90
2017-07-06T08:18:35.574Z,58.30
2017-07-06T08:21:03.135Z,59.00
2017-07-06T08:23:30.704Z,58.80
2017-07-06T08:25:58.314Z,59.10
2017-07-06T08:28:26.664Z,59.70
2017-07-06T08:30:54.232Z,59.80
2017-07-06T08:33:21.945Z,60.10
2017-07-06T08:35:49.503Z,59.10
2017-07-06T08:38:17.066Z,58.40
2017-07-06T08:40:44.658Z,57.60
2017-07-06T08:43:12.220Z,58.20
2017-07-06T08:45:39.860Z,58.10
2017-07-06T08:48:07.423Z,57.80
2017-07-06T08:50:34.983Z,58.20
2017-07-06T08:53:02.578Z,57.60
2017-07-06T08:55:30.140Z,56.60
2017-07-06T08:57:57.732Z,55.50
2017-07-06T09:00:25.345Z,55.40
2017-07-06T09:02:52.903Z,56.40
2017-07-06T09:05:20.511Z,56.30
2017-07-06T09:07:48.073Z,54.60
2017-07-06T09:10:15.637Z,53.90
2017-07-06T09:12:43.249Z,54.80
2017-07-06T09:15:10.811Z,54.90
2017-07-06T09:17:38.367Z,53.40
2017-07-06T09:20:05.961Z,53.30
2017-07-06T09:22:34.844Z,54.20
2017-07-06T09:25:03.173Z,53.50
2017-07-06T09:27:30.765Z,53.40
2017-07-06T09:29:58.374Z,52.40
2017-07-06T09:32:25.936Z,53.70
2017-07-06T09:34:53.502Z,53.00
2017-07-06T09:37:21.120Z,53.60
2017-07-06T09:39:49.494Z,52.00
2017-07-06T09:42:17.056Z,51.40
2017-07-06T09:44:45.386Z,53.80
2017-07-06T09:47:12.977Z,53.10
2017-07-06T09:49:41.566Z,51.50
2017-07-06T09:52:09.122Z,51.80
2017-07-06T09:54:36.685Z,52.60
2017-07-06T09:57:04.358Z,51.10
2017-07-06T09:59:31.916Z,51.10
2017-07-06T10:01:59.498Z,51.50
2017-07-06T10:04:27.853Z,50.50
2017-07-06T10:06:55.461Z,50.50
2017-07-06T10:09:23.066Z,49.80
2017-07-06T10:11:50.630Z,50.70
2017-07-06T10:14:18.243Z,51.40
2017-07-06T10:16:45.802Z,50.00
2017-07-06T10:19:13.364Z,51.10
2017-07-06T10:21:41.032Z,51.40
2017-07-06T10:24:08.595Z,50.20
2017-07-06T10:26:36.157Z,49.70
2017-07-06T10:29:03.764Z,49.20
2017-07-06T10:31:32.091Z,48.50
2017-07-06T10:33:59.699Z,48.50
2017-07-06T10:36:27.267Z,49.50
2017-07-06T10:38:55.592Z,48.70
2017-07-06T10:41:23.288Z,48.60
2017-07-06T10:43:50.851Z,48.30
2017-07-06T10:46:18.413Z,47.80
2017-07-06T10:48:46.022Z,48.20
2017-07-06T10:51:13.618Z,48.60
2017-07-06T10:53:41.236Z,47.70
2017-07-06T10:56:08.806Z,47.30
2017-07-06T10:58:36.370Z,46.40
2017-07-06T11:01:03.975Z,47.60
2017-07-06T11:03:31.583Z,46.30
2017-07-06T11:05:59.154Z,45.80
2017-07-06T11:08:26.738Z,45.00
2017-07-06T11:10:54.338Z,47.30
2017-07-06T11:13:23.377Z,46.10
2017-07-06T11:15:50.991Z,46.00
2017-07-06T11:18:19.344Z,46.40
2017-07-06T11:20:46.921Z,46.90
2017-07-06T11:23:14.649Z,45.00
2017-07-06T11:25:42.539Z,43.50
2017-07-06T11:28:10.131Z,43.50
2017-07-06T11:30:37.709Z,43.70
2017-07-06T11:33:05.351Z,44.10
2017-07-06T11:35:32.908Z,43.70
2017-07-06T11:38:00.471Z,44.40
2017-07-06T11:40:28.064Z,44.30
2017-07-06T11:42:55.629Z,45.60
2017-07-06T11:45:23.266Z,43.10
2017-07-06T11:47:50.835Z,42.80
2017-07-06T11:50:18.978Z,43.50
2017-07-06T11:52:47.334Z,43.50
2017-07-06T11:55:14.945Z,43.50
2017-07-06T11:57:42.506Z,44.20
2017-07-06T12:00:10.084Z,44.20
2017-07-06T12:02:37.681Z,44.10
2017-07-06T12:05:05.254Z,43.50
2017-07-06T12:07:32.862Z,42.60
2017-07-06T12:10:00.425Z,43.20
2017-07-06T12:12:27.988Z,42.30
2017-07-06T12:14:55.597Z,42.90
2017-07-06T12:17:23.969Z,43.00
2017-07-06T12:19:51.531Z,42.90
2017-07-06T12:22:20.707Z,42.30
2017-07-06T12:24:48.294Z,42.00
2017-07-06T12:27:15.858Z,43.20
2017-07-06T12:29:44.214Z,41.80
2017-07-06T12:32:11.779Z,41.70
2017-07-06T12:34:39.391Z,41.40
2017-07-06T12:37:06.949Z,42.00
2017-07-06T12:39:34.557Z,42.80
2017-07-06T12:42:02.118Z,43.20
2017-07-06T12:44:29.667Z,41.60
2017-07-06T12:46:57.280Z,41.90
2017-07-06T12:49:24.839Z,42.10
2017-07-06T12:51:52.400Z,42.60
2017-07-06T12:54:20.058Z,43.30
2017-07-06T12:56:47.651Z,42.80
2017-07-06T12:59:15.212Z,43.20
2017-07-06T13:01:42.823Z,43.20
2017-07-06T13:04:11.208Z,44.40
2017-07-06T13:06:39.356Z,44.40
2017-07-06T13:09:06.972Z,45.20
2017-07-06T13:11:34.580Z,45.20
2017-07-06T13:14:02.140Z,45.10
2017-07-06T13:16:29.703Z,44.80
2017-07-06T13:18:57.326Z,45.20
2017-07-06T13:21:24.921Z,45.70
2017-07-06T13:23:52.492Z,45.80
2017-07-06T13:26:20.981Z,45.40
2017-07-06T13:28:49.168Z,45.20
2017-07-06T13:46:04.420Z,68.60
2017-07-06T14:52:06.361Z,78.20
2017-07-06T15:14:38.802Z,74.70
2017-07-06T15:17:06.406Z,75.20
2017-07-06T15:19:34.301Z,77.20
2017-07-06T15:22:02.167Z,77.60
2017-07-06T15:24:29.994Z,76.70
2017-07-06T15:26:57.878Z,76.20
2017-07-06T15:29:25.463Z,73.70
2017-07-06T15:31:53.016Z,74.40
2017-07-06T15:34:20.564Z,73.80
2017-07-06T15:36:48.155Z,73.80
2017-07-06T15:39:15.757Z,72.80
2017-07-06T15:41:43.299Z,71.60
2017-07-06T15:44:11.374Z,71.00
2017-07-06T15:46:39.076Z,71.80
2017-07-06T15:49:06.704Z,72.40
2017-07-06T15:51:35.930Z,73.90
2017-07-06T15:54:03.493Z,75.90
2017-07-06T15:56:31.078Z,75.90
2017-07-06T15:58:58.649Z,73.60
2017-07-06T16:01:26.224Z,73.70
2017-07-06T16:03:54.555Z,73.10
2017-07-06T16:06:22.142Z,71.90
2017-07-06T16:08:49.703Z,71.30
2017-07-06T16:11:17.316Z,69.70
2017-07-06T16:13:44.861Z,67.30
2017-07-06T16:16:12.442Z,67.90
2017-07-06T16:18:40.021Z,66.60
2017-07-06T16:21:07.555Z,65.50
2017-07-06T16:23:35.085Z,66.70
2017-07-06T16:26:02.681Z,68.20
2017-07-06T16:28:30.286Z,68.60
2017-07-06T16:30:57.904Z,69.40
2017-07-06T16:33:25.528Z,68.60
2017-07-06T16:35:53.062Z,67.50
2017-07-06T16:38:20.652Z,68.50
2017-07-06T16:40:48.192Z,69.80
2017-07-06T16:43:15.764Z,69.80
2017-07-06T16:45:43.301Z,67.60
2017-07-06T16:48:10.881Z,67.90
2017-07-06T16:50:38.465Z,69.60
2017-07-06T16:53:06.021Z,71.30
2017-07-06T16:55:34.418Z,71.40
2017-07-06T16:58:01.977Z,71.80
2017-07-06T17:00:30.591Z,71.20
2017-07-06T17:02:59.094Z,71.40
2017-07-06T17:05:26.643Z,72.00
2017-07-06T17:07:55.785Z,73.80
2017-07-06T17:10:23.368Z,71.80
2017-07-06T17:12:50.927Z,72.70
2017-07-06T17:15:22.658Z,73.10
2017-07-06T17:17:50.238Z,73.30
2017-07-06T17:20:20.045Z,73.50
2017-07-06T17:22:47.678Z,71.90
2017-07-06T17:25:16.043Z,72.50
2017-07-06T17:27:43.633Z,70.30
2017-07-06T17:30:13.841Z,70.40
2017-07-06T17:32:42.798Z,70.90
2017-07-06T17:35:10.342Z,71.90
2017-07-06T17:37:38.018Z,70.10
2017-07-06T17:40:05.600Z,69.60
2017-07-06T17:42:34.020Z,70.90
2017-07-06T17:45:02.579Z,70.70
2017-07-06T17:47:30.298Z,70.90
2017-07-06T17:49:58.688Z,72.10
2017-07-06T17:52:28.084Z,71.40
2017-07-06T17:54:55.691Z,71.40
2017-07-06T17:57:23.884Z,70.60
2017-07-06T17:59:51.443Z,69.70
2017-07-06T18:02:19.853Z,69.60
2017-07-06T18:04:47.468Z,70.10
2017-07-06T18:07:15.030Z,70.50
2017-07-06T18:09:42.622Z,68.60
2017-07-06T18:12:13.278Z,69.30
2017-07-06T18:14:42.530Z,69.20
2017-07-06T18:17:11.141Z,70.00
2017-07-06T18:19:39.433Z,70.50
2017-07-06T18:22:07.022Z,71.80
2017-07-06T18:24:35.661Z,72.80
2017-07-06T18:27:03.220Z,73.20
2017-07-06T18:29:30.780Z,73.40
2017-07-06T18:31:58.375Z,74.20
2017-07-06T18:34:25.931Z,75.10
2017-07-06T18:36:53.523Z,75.60
2017-07-06T18:39:22.603Z,75.70
2017-07-06T18:41:50.193Z,75.90
2017-07-06T18:44:21.657Z,75.60
2017-07-06T18:46:49.563Z,75.60
2017-07-06T18:49:17.732Z,76.10
2017-07-06T18:51:46.899Z,76.90
2017-07-06T18:54:15.186Z,76.70
2017-07-06T18:56:43.059Z,76.50
2017-07-06T18:59:12.537Z,76.60
2017-07-06T19:01:40.927Z,76.70
2017-07-06T19:04:09.341Z,77.00
2017-07-06T19:06:37.243Z,77.10
2017-07-06T19:09:05.699Z,76.80
2017-07-06T19:11:35.895Z,76.70
2017-07-06T19:14:04.431Z,76.60
2017-07-06T19:16:32.014Z,76.60
2017-07-06T19:19:00.870Z,76.60
2017-07-06T19:21:30.990Z,76.90
2017-07-06T19:23:59.169Z,77.50
2017-07-06T19:26:26.745Z,76.80
2017-07-06T19:28:54.347Z,76.30
2017-07-06T19:31:21.890Z,76.00
2017-07-06T19:33:50.184Z,76.30
2017-07-06T19:36:17.739Z,75.90
2017-07-06T19:38:45.311Z,75.80
2017-07-06T19:41:13.473Z,76.10
2017-07-06T19:43:41.062Z,75.60
2017-07-06T19:46:08.634Z,75.50
2017-07-06T19:48:36.238Z,76.00
2017-07-06T19:51:03.806Z,76.20
2017-07-06T19:53:31.437Z,76.30
2017-07-06T19:55:58.974Z,76.40
2017-07-06T19:58:26.681Z,75.70
2017-07-06T20:00:54.226Z,75.40
2017-07-06T20:03:22.086Z,75.10
2017-07-06T20:05:49.747Z,75.90
2017-07-06T20:08:17.286Z,75.70
2017-07-06T20:10:44.945Z,75.40
2017-07-06T20:13:12.506Z,75.50
2017-07-06T20:15:40.089Z,75.00
2017-07-06T20:18:07.667Z,76.40
2017-07-06T20:20:36.410Z,77.10
2017-07-06T20:23:03.984Z,77.50
2017-07-06T20:25:31.540Z,76.70
2017-07-06T20:27:59.075Z,77.40
2017-07-06T20:30:27.530Z,77.50
2017-07-06T20:32:56.064Z,75.50
2017-07-06T20:35:23.607Z,73.50
2017-07-06T20:37:51.338Z,72.70
2017-07-06T20:40:18.911Z,72.00
2017-07-06T20:42:46.466Z,71.60
2017-07-06T20:45:14.046Z,71.90
2017-07-06T20:47:41.706Z,70.80
2017-07-06T20:50:09.291Z,70.70
2017-07-06T20:52:36.841Z,69.70
2017-07-06T20:55:04.433Z,69.40
2017-07-06T20:57:31.983Z,69.20
2017-07-06T20:59:59.509Z,69.00
2017-07-06T21:02:27.831Z,68.80
2017-07-06T21:04:55.387Z,69.60
2017-07-06T21:07:22.934Z,69.00
2017-07-06T21:09:50.502Z,69.40
2017-07-06T21:12:18.280Z,68.80
2017-07-06T21:14:45.832Z,69.00
2017-07-06T21:17:13.382Z,69.20
2017-07-06T21:19:40.940Z,68.00
2017-07-06T21:22:08.464Z,68.40
2017-07-06T21:24:37.043Z,68.30
2017-07-06T21:27:04.577Z,67.90
2017-07-06T21:29:32.184Z,68.00
2017-07-06T21:31:59.776Z,67.10
2017-07-06T21:34:27.300Z,66.90
2017-07-06T21:36:54.836Z,67.10
2017-07-06T21:39:22.391Z,66.60
2017-07-06T21:41:49.954Z,66.80
2017-07-06T21:44:17.524Z,66.90
2017-07-06T21:46:45.055Z,66.50
2017-07-06T21:49:12.622Z,66.40
2017-07-06T21:51:40.150Z,66.40
2017-07-06T21:54:07.673Z,66.70
2017-07-06T21:56:35.235Z,67.00
2017-07-06T21:59:02.818Z,66.80
2017-07-06T22:01:30.382Z,66.80
2017-07-06T22:03:57.904Z,67.20
2017-07-06T22:06:25.468Z,66.80
2017-07-06T22:08:53.006Z,66.80
2017-07-06T22:11:20.542Z,67.30
2017-07-06T22:13:48.714Z,67.40
2017-07-06T22:16:16.261Z,67.10
2017-07-06T22:18:43.789Z,67.20
2017-07-06T22:21:11.345Z,66.70
2017-07-06T22:23:38.909Z,66.90
2017-07-06T22:26:06.485Z,66.50
2017-07-06T22:28:34.065Z,66.50
2017-07-06T22:31:01.602Z,66.60
2017-07-06T22:33:30.017Z,66.60
2017-07-06T22:35:58.037Z,67.50
2017-07-06T22:38:26.550Z,67.50
2017-07-06T22:40:54.106Z,68.10
2017-07-06T22:43:21.651Z,69.50
2017-07-06T22:45:49.277Z,70.30
2017-07-06T22:48:16.819Z,70.80
2017-07-06T22:50:44.367Z,70.80
2017-07-06T22:53:12.570Z,71.30
2017-07-06T22:55:40.172Z,72.20
2017-07-06T22:58:08.293Z,73.40
2017-07-06T23:00:36.751Z,73.70
2017-07-06T23:03:04.394Z,73.80
2017-07-06T23:05:32.127Z,74.20
2017-07-06T23:07:59.657Z,75.00
2017-07-06T23:10:27.195Z,75.70
2017-07-06T23:12:54.761Z,75.30
2017-07-06T23:15:22.294Z,75.40
2017-07-06T23:17:50.737Z,75.10
2017-07-06T23:20:19.482Z,74.90
2017-07-06T23:22:47.018Z,75.70
2017-07-06T23:25:14.586Z,76.70
2017-07-06T23:27:42.109Z,77.10
2017-07-06T23:30:10.558Z,77.20
2017-07-06T23:32:38.120Z,77.30
2017-07-06T23:35:05.647Z,77.00
2017-07-06T23:37:33.832Z,76.90
2017-07-06T23:40:01.369Z,76.60
2017-07-06T23:42:28.896Z,76.50
2017-07-06T23:44:56.470Z,77.20
2017-07-06T23:47:24.031Z,77.60
2017-07-06T23:49:51.558Z,77.70
2017-07-06T23:52:19.119Z,77.80
2017-07-06T23:54:46.679Z,77.70
2017-07-06T23:57:14.262Z,78.00
2017-07-06T23:59:41.796Z,78.20
